createdAt,value
2022-09-20T00:00:25.353Z,10.90
2022-09-20T00:02:53.718Z,10.80
2022-09-20T00:05:22.070Z,10.80
2022-09-20T00:07:50.666Z,10.80
2022-09-20T00:10:22.496Z,10.90
2022-09-20T00:12:50.503Z,10.80
2022-09-20T00:15:18.655Z,10.90
2022-09-20T00:17:46.645Z,10.80
2022-09-20T00:20:14.827Z,10.80
2022-09-20T00:22:42.785Z,10.80
2022-09-20T00:25:10.839Z,10.80
2022-09-20T00:27:40.242Z,10.80
2022-09-20T00:30:09.124Z,10.80
2022-09-20T00:32:37.107Z,10.70
2022-09-20T00:35:10.940Z,10.70
2022-09-20T00:37:41.301Z,10.70
2022-09-20T00:40:11.423Z,10.70
2022-09-20T00:42:41.169Z,10.60
2022-09-20T00:45:09.963Z,10.60
2022-09-20T00:47:39.913Z,10.60
2022-09-20T00:50:23.901Z,10.60
2022-09-20T00:52:53.219Z,10.60
2022-09-20T00:55:21.497Z,10.70
2022-09-20T00:57:51.048Z,10.60
2022-09-20T01:00:19.414Z,10.60
2022-09-20T01:02:49.177Z,10.60
2022-09-20T01:05:19.883Z,10.60
2022-09-20T01:07:48.826Z,10.60
2022-09-20T01:10:19.953Z,10.60
2022-09-20T01:12:48.330Z,10.50
2022-09-20T01:15:18.183Z,10.60
2022-09-20T01:17:48.514Z,10.60
2022-09-20T01:20:18.476Z,10.60
2022-09-20T01:22:53.857Z,10.50
2022-09-20T01:25:28.753Z,10.50
2022-09-20T01:27:57.930Z,10.50
2022-09-20T01:30:27.115Z,10.40
2022-09-20T01:33:03.926Z,10.40
2022-09-20T01:35:33.578Z,10.40
2022-09-20T01:38:07.363Z,10.40
2022-09-20T01:40:40.426Z,10.30
2022-09-20T01:43:14.755Z,10.30
2022-09-20T01:45:45.749Z,10.20
2022-09-20T01:48:16.432Z,10.20
2022-09-20T01:50:51.842Z,10.30
2022-09-20T01:53:32.916Z,10.20
2022-09-20T01:56:12.224Z,10.20
2022-09-20T01:59:19.798Z,10.20
2022-09-20T02:02:10.766Z,10.20
2022-09-20T02:04:53.744Z,10.20
2022-09-20T02:07:33.043Z,10.20
2022-09-20T02:10:09.155Z,10.20
2022-09-20T02:12:48.283Z,10.10
2022-09-20T02:15:24.609Z,10.10
2022-09-20T02:17:56.704Z,10.10
2022-09-20T02:20:32.510Z,10.10
2022-09-20T02:23:19.465Z,10.10
2022-09-20T02:25:56.143Z,10.10
2022-09-20T02:28:29.240Z,10.10
2022-09-20T02:31:02.320Z,10.10
2022-09-20T02:33:41.509Z,10.10
2022-09-20T02:36:17.040Z,10.10
2022-09-20T02:38:51.430Z,10.10
2022-09-20T02:41:38.394Z,10.50
2022-09-20T02:44:10.575Z,10.00
2022-09-20T02:46:42.207Z,10.00
2022-09-20T02:49:16.231Z,10.00
2022-09-20T02:51:48.006Z,10.00
2022-09-20T02:54:24.171Z,9.90
2022-09-20T02:56:57.005Z,9.90
2022-09-20T02:59:28.824Z,9.90
2022-09-20T03:02:01.005Z,9.90
2022-09-20T03:04:35.849Z,9.90
2022-09-20T03:07:06.133Z,9.90
2022-09-20T03:09:35.882Z,9.90
2022-09-20T03:12:11.490Z,9.80
2022-09-20T03:14:41.955Z,9.90
2022-09-20T03:17:17.467Z,9.90
2022-09-20T03:19:52.319Z,9.90
2022-09-20T03:22:27.917Z,9.90
2022-09-20T03:25:02.177Z,9.90
2022-09-20T03:27:33.219Z,9.90
2022-09-20T03:30:07.712Z,10.00
2022-09-20T03:32:41.400Z,10.00
2022-09-20T03:35:18.999Z,10.00
2022-09-20T03:37:56.897Z,10.00
2022-09-20T03:40:49.089Z,10.00
2022-09-20T03:43:28.482Z,10.10
2022-09-20T03:46:00.509Z,10.10
2022-09-20T03:48:37.428Z,10.10
2022-09-20T03:51:09.965Z,10.10
2022-09-20T03:53:56.746Z,10.10
2022-09-20T03:56:33.494Z,10.10
2022-09-20T03:59:11.927Z,10.10
2022-09-20T04:01:45.737Z,10.20
2022-09-20T04:04:20.946Z,10.20
2022-09-20T04:07:02.348Z,10.20
2022-09-20T04:09:48.400Z,10.20
2022-09-20T04:12:21.814Z,10.20
2022-09-20T04:14:54.296Z,10.20
2022-09-20T04:17:35.145Z,10.20
2022-09-20T04:20:04.686Z,10.30
2022-09-20T04:22:32.937Z,10.30
2022-09-20T04:25:03.916Z,10.30
2022-09-20T04:27:34.763Z,10.30
2022-09-20T04:30:06.879Z,10.30
2022-09-20T04:32:39.524Z,10.30
2022-09-20T04:35:32.532Z,10.30
2022-09-20T04:38:06.154Z,10.30
2022-09-20T04:40:44.281Z,10.30
2022-09-20T04:43:31.956Z,10.30
2022-09-20T04:46:14.511Z,10.30
2022-09-20T04:49:06.102Z,10.30
2022-09-20T04:51:57.457Z,10.30
2022-09-20T04:54:40.368Z,10.20
2022-09-20T04:57:24.115Z,10.20
2022-09-20T04:59:59.149Z,10.20
2022-09-20T05:02:45.146Z,10.20
2022-09-20T05:05:31.151Z,10.20
2022-09-20T05:08:17.757Z,10.20
2022-09-20T05:11:06.881Z,10.20
2022-09-20T05:13:40.709Z,10.10
2022-09-20T05:16:11.967Z,10.10
2022-09-20T05:18:59.396Z,10.20
2022-09-20T05:21:35.582Z,10.10
2022-09-20T05:24:12.607Z,10.10
2022-09-20T05:26:47.615Z,10.10
2022-09-20T05:29:20.788Z,10.10
2022-09-20T05:31:52.375Z,10.10
2022-09-20T05:34:25.661Z,10.10
2022-09-20T05:36:56.458Z,10.10
2022-09-20T05:39:30.170Z,10.10
2022-09-20T05:41:59.555Z,10.00
2022-09-20T05:44:31.950Z,10.00
2022-09-20T05:47:05.172Z,10.00
2022-09-20T05:49:39.830Z,10.00
2022-09-20T05:52:17.197Z,10.00
2022-09-20T05:54:54.691Z,10.00
2022-09-20T05:57:29.202Z,10.10
2022-09-20T06:00:02.815Z,10.10
2022-09-20T06:02:36.209Z,10.10
2022-09-20T06:05:06.797Z,10.10
2022-09-20T06:07:46.179Z,10.10
2022-09-20T06:10:23.423Z,10.10
2022-09-20T06:12:56.345Z,10.20
2022-09-20T06:15:27.471Z,10.20
2022-09-20T06:17:58.872Z,10.20
2022-09-20T06:20:29.732Z,10.30
2022-09-20T06:22:59.151Z,10.30
2022-09-20T06:25:31.105Z,10.30
2022-09-20T06:28:01.180Z,10.40
2022-09-20T06:30:32.326Z,10.40
2022-09-20T06:33:01.228Z,10.50
2022-09-20T06:35:33.011Z,10.60
2022-09-20T06:38:25.557Z,10.60
2022-09-20T06:41:11.080Z,10.60
2022-09-20T06:43:41.773Z,10.70
2022-09-20T06:46:13.868Z,10.80
2022-09-20T06:48:41.900Z,10.80
2022-09-20T06:51:11.102Z,10.80
2022-09-20T06:53:40.954Z,10.80
2022-09-20T06:56:09.563Z,10.80
2022-09-20T06:58:37.476Z,10.90
2022-09-20T07:01:05.395Z,10.90
2022-09-20T07:03:34.646Z,10.90
2022-09-20T07:06:04.188Z,10.90
2022-09-20T07:08:32.109Z,10.90
2022-09-20T07:11:04.181Z,10.90
2022-09-20T07:13:32.107Z,10.90
2022-09-20T07:16:04.411Z,10.90
2022-09-20T07:18:33.565Z,10.90
2022-09-20T07:21:02.863Z,11.00
2022-09-20T07:23:31.320Z,11.00
2022-09-20T07:26:01.024Z,11.00
2022-09-20T07:28:28.933Z,11.00
2022-09-20T07:30:56.835Z,11.00
2022-09-20T07:33:25.140Z,11.10
2022-09-20T07:35:53.847Z,11.10
2022-09-20T07:38:23.440Z,11.20
2022-09-20T07:40:55.272Z,11.20
2022-09-20T07:43:23.686Z,11.30
2022-09-20T07:45:54.952Z,11.30
2022-09-20T07:48:25.907Z,11.30
2022-09-20T07:50:54.713Z,11.30
2022-09-20T07:53:24.038Z,11.30
2022-09-20T07:55:58.811Z,11.40
2022-09-20T07:58:26.808Z,11.30
2022-09-20T08:00:55.300Z,11.40
2022-09-20T08:03:23.445Z,11.40
2022-09-20T08:05:51.794Z,11.50
2022-09-20T08:08:20.186Z,11.50
2022-09-20T08:10:49.663Z,11.50
2022-09-20T08:16:05.957Z,11.60
2022-09-20T08:18:34.574Z,11.70
2022-09-20T08:21:06.195Z,11.70
2022-09-20T08:23:35.196Z,11.70
2022-09-20T08:26:04.449Z,11.70
2022-09-20T08:28:33.758Z,11.70
2022-09-20T08:31:02.449Z,11.70
2022-09-20T08:33:30.505Z,11.80
2022-09-20T08:35:58.980Z,11.80
2022-09-20T08:41:20.754Z,11.90
2022-09-20T08:43:52.717Z,11.90
2022-09-20T08:46:23.352Z,11.90
2022-09-20T08:48:52.130Z,12.00
2022-09-20T08:51:24.199Z,12.10
2022-09-20T08:53:53.430Z,12.10
2022-09-20T08:56:23.493Z,12.20
2022-09-20T08:58:53.181Z,12.20
2022-09-20T09:01:22.799Z,12.30
2022-09-20T09:03:52.450Z,12.30
2022-09-20T09:06:21.389Z,12.40
2022-09-20T09:08:51.981Z,12.40
2022-09-20T09:11:20.695Z,12.40
2022-09-20T09:13:53.267Z,12.50
2022-09-20T09:16:27.268Z,12.50
2022-09-20T09:18:58.742Z,12.50
2022-09-20T09:21:27.418Z,12.50
2022-09-20T09:23:58.309Z,12.50
2022-09-20T09:26:26.485Z,12.50
2022-09-20T09:29:16.122Z,12.50
2022-09-20T09:31:45.271Z,12.50
2022-09-20T09:34:26.337Z,12.50
2022-09-20T09:36:55.403Z,12.60
2022-09-20T09:39:26.986Z,12.60
2022-09-20T09:41:55.363Z,12.70
2022-09-20T09:44:25.647Z,12.60
2022-09-20T09:46:54.496Z,12.70
2022-09-20T09:49:23.244Z,12.80
2022-09-20T09:52:05.105Z,12.90
2022-09-20T09:54:34.999Z,12.90
2022-09-20T09:57:08.727Z,12.90
2022-09-20T09:59:51.052Z,12.90
2022-09-20T10:02:24.512Z,12.90
2022-09-20T10:04:58.862Z,13.00
2022-09-20T10:07:32.451Z,13.00
2022-09-20T10:10:05.236Z,13.10
2022-09-20T10:12:42.997Z,13.10
2022-09-20T10:15:23.055Z,13.20
2022-09-20T10:17:52.800Z,13.30
2022-09-20T10:20:33.680Z,13.30
2022-09-20T10:26:02.515Z,13.40
2022-09-20T10:28:36.136Z,13.50
2022-09-20T10:31:09.895Z,13.50
2022-09-20T10:33:44.446Z,13.50
2022-09-20T10:36:16.987Z,13.50
2022-09-20T10:38:47.121Z,13.50
2022-09-20T10:41:34.782Z,13.50
2022-09-20T10:44:17.416Z,13.60
2022-09-20T10:46:53.055Z,13.60
2022-09-20T10:49:24.913Z,13.70
2022-09-20T10:52:06.432Z,13.70
2022-09-20T10:54:41.599Z,13.80
2022-09-20T10:57:22.584Z,13.80
2022-09-20T10:59:54.406Z,13.80
2022-09-20T11:02:35.392Z,13.90
2022-09-20T11:05:18.329Z,13.90
2022-09-20T11:07:52.555Z,14.00
2022-09-20T11:10:22.641Z,14.10
2022-09-20T11:12:52.784Z,14.10
2022-09-20T11:15:23.903Z,14.00
2022-09-20T11:17:59.758Z,14.00
2022-09-20T11:20:28.838Z,14.00
2022-09-20T11:22:59.031Z,13.80
2022-09-20T11:25:32.014Z,13.80
2022-09-20T11:28:02.795Z,13.70
2022-09-20T11:30:31.938Z,13.60
2022-09-20T11:33:04.236Z,13.50
2022-09-20T11:35:34.515Z,13.40
2022-09-20T11:38:05.528Z,13.40
2022-09-20T11:40:38.490Z,13.40
2022-09-20T11:43:07.548Z,13.40
2022-09-20T11:45:36.543Z,13.20
2022-09-20T11:48:08.922Z,13.20
2022-09-20T11:50:52.048Z,13.20
2022-09-20T11:53:32.166Z,13.20
2022-09-20T11:56:08.621Z,13.20
2022-09-20T11:58:46.463Z,13.20
2022-09-20T12:01:14.982Z,13.20
2022-09-20T12:03:45.824Z,13.20
2022-09-20T12:06:25.300Z,13.20
2022-09-20T12:08:53.595Z,13.10
2022-09-20T12:11:29.355Z,13.20
2022-09-20T12:14:01.721Z,13.20
2022-09-20T12:16:44.585Z,13.30
2022-09-20T12:19:14.983Z,13.30
2022-09-20T12:22:01.337Z,13.40
2022-09-20T12:24:30.222Z,13.40
2022-09-20T12:26:59.288Z,13.40
2022-09-20T12:29:52.164Z,13.50
2022-09-20T12:32:33.997Z,13.50
2022-09-20T12:35:23.223Z,13.70
2022-09-20T12:37:51.153Z,13.80
2022-09-20T12:40:19.310Z,14.00
2022-09-20T12:42:56.799Z,14.20
2022-09-20T12:45:24.850Z,14.30
2022-09-20T12:47:54.076Z,14.40
2022-09-20T12:50:41.296Z,14.60
2022-09-20T12:53:13.259Z,14.60
2022-09-20T12:55:49.826Z,14.70
2022-09-20T12:58:24.254Z,14.90
2022-09-20T13:01:14.568Z,15.00
2022-09-20T13:03:43.409Z,15.10
2022-09-20T13:06:26.531Z,15.40
2022-09-20T13:09:03.743Z,15.60
2022-09-20T13:11:35.688Z,15.90
2022-09-20T13:14:04.765Z,16.30
2022-09-20T13:16:34.372Z,16.60
2022-09-20T13:19:05.216Z,16.90
2022-09-20T13:21:35.053Z,17.30
2022-09-20T13:24:03.430Z,17.50
2022-09-20T13:26:34.330Z,17.40
2022-09-20T13:29:03.522Z,16.90
2022-09-20T13:31:33.637Z,16.80
2022-09-20T13:34:14.893Z,16.70
2022-09-20T13:36:44.563Z,16.50
2022-09-20T13:39:23.634Z,16.40
2022-09-20T13:41:51.924Z,16.20
2022-09-20T13:44:20.339Z,16.10
2022-09-20T13:46:48.195Z,16.00
2022-09-20T13:49:17.554Z,15.80
2022-09-20T13:51:46.884Z,15.60
2022-09-20T13:54:18.661Z,15.60
2022-09-20T13:56:46.661Z,15.50
2022-09-20T13:59:19.325Z,15.50
2022-09-20T14:01:50.815Z,15.40
2022-09-20T14:04:21.374Z,15.40
2022-09-20T14:06:51.959Z,15.70
2022-09-20T14:09:22.166Z,15.70
2022-09-20T14:11:50.265Z,15.60
2022-09-20T14:14:22.239Z,15.50
2022-09-20T14:16:51.311Z,15.50
2022-09-20T14:19:21.198Z,15.50
2022-09-20T14:21:49.714Z,15.50
2022-09-20T14:24:27.316Z,15.30
2022-09-20T14:27:03.236Z,15.10
2022-09-20T14:29:38.408Z,15.10
2022-09-20T14:32:07.500Z,14.90
2022-09-20T14:34:36.686Z,14.90
2022-09-20T14:37:07.228Z,14.80
2022-09-20T14:39:39.967Z,14.80
2022-09-20T14:42:16.049Z,14.70
2022-09-20T14:44:43.984Z,14.60
2022-09-20T14:47:14.746Z,14.60
2022-09-20T14:49:43.882Z,14.60
2022-09-20T14:52:32.949Z,14.40
2022-09-20T14:55:03.534Z,14.40
2022-09-20T14:57:32.186Z,14.30
2022-09-20T15:00:06.228Z,14.30
2022-09-20T15:02:36.091Z,14.20
2022-09-20T15:05:05.780Z,14.20
2022-09-20T15:07:33.674Z,14.20
2022-09-20T15:10:02.932Z,14.30
2022-09-20T15:12:31.848Z,14.30
2022-09-20T15:14:59.720Z,14.40
2022-09-20T15:17:27.636Z,14.30
2022-09-20T15:19:55.532Z,14.30
2022-09-20T15:22:23.396Z,14.30
2022-09-20T15:24:51.257Z,14.30
2022-09-20T15:27:21.611Z,14.30
2022-09-20T15:29:51.875Z,14.30
2022-09-20T15:32:19.756Z,14.30
2022-09-20T15:34:47.654Z,14.30
2022-09-20T15:37:15.516Z,14.60
2022-09-20T15:39:43.434Z,14.80
2022-09-20T15:42:11.443Z,14.90
2022-09-20T15:44:40.811Z,15.10
2022-09-20T15:47:11.803Z,15.30
2022-09-20T15:49:46.547Z,15.60
2022-09-20T15:52:14.688Z,15.90
2022-09-20T15:54:43.272Z,16.00
2022-09-20T15:57:11.153Z,16.20
2022-09-20T15:59:40.642Z,16.40
2022-09-20T16:02:10.061Z,16.60
2022-09-20T16:04:37.948Z,16.70
2022-09-20T16:07:06.347Z,16.90
2022-09-20T16:09:35.957Z,17.00
2022-09-20T16:12:04.573Z,17.10
2022-09-20T16:14:32.613Z,17.30
2022-09-20T16:17:03.786Z,17.50
2022-09-20T16:19:30.673Z,17.50
2022-09-20T16:21:59.407Z,17.60
2022-09-20T16:24:28.027Z,17.70
2022-09-20T16:26:56.279Z,17.80
2022-09-20T16:29:25.650Z,17.70
2022-09-20T16:31:54.362Z,17.70
2022-09-20T16:34:28.380Z,17.80
2022-09-20T16:36:58.594Z,17.70
2022-09-20T16:39:27.681Z,17.70
2022-09-20T16:41:57.153Z,17.70
2022-09-20T16:44:26.978Z,17.70
2022-09-20T16:46:54.926Z,17.50
2022-09-20T16:49:24.641Z,17.40
2022-09-20T16:51:52.503Z,17.30
2022-09-20T16:54:20.440Z,17.20
2022-09-20T16:56:49.145Z,17.00
2022-09-20T16:59:17.794Z,16.90
2022-09-20T17:01:46.262Z,16.80
2022-09-20T17:04:15.021Z,16.70
2022-09-20T17:06:45.508Z,16.60
2022-09-20T17:09:13.999Z,16.40
2022-09-20T17:11:44.527Z,16.30
2022-09-20T17:14:12.880Z,16.10
2022-09-20T17:16:41.972Z,16.00
2022-09-20T17:19:11.088Z,15.90
2022-09-20T17:21:40.081Z,15.80
2022-09-20T17:24:09.312Z,15.70
2022-09-20T17:26:38.396Z,15.60
2022-09-20T17:29:07.017Z,15.40
2022-09-20T17:31:36.107Z,15.40
2022-09-20T17:34:07.133Z,15.20
2022-09-20T17:36:36.395Z,15.10
2022-09-20T17:39:04.783Z,15.10
2022-09-20T17:41:36.567Z,14.90
2022-09-20T17:44:08.074Z,14.80
2022-09-20T17:46:37.275Z,14.80
2022-09-20T17:49:06.951Z,14.70
2022-09-20T17:51:36.023Z,14.60
2022-09-20T17:54:04.312Z,14.40
2022-09-20T17:56:32.362Z,14.40
2022-09-20T17:59:02.467Z,14.30
2022-09-20T18:01:30.930Z,14.20
2022-09-20T18:03:59.741Z,14.20
2022-09-20T18:06:28.704Z,14.10
2022-09-20T18:08:57.465Z,14.00
2022-09-20T18:11:28.736Z,13.90
2022-09-20T18:13:56.701Z,13.80
2022-09-20T18:16:26.260Z,13.80
2022-09-20T18:18:54.338Z,13.70
2022-09-20T18:21:22.967Z,13.70
2022-09-20T18:23:51.835Z,13.60
2022-09-20T18:26:23.035Z,13.50
2022-09-20T18:28:57.927Z,13.40
2022-09-20T18:31:28.243Z,13.30
2022-09-20T18:33:57.144Z,13.20
2022-09-20T18:36:27.222Z,13.20
2022-09-20T18:38:55.798Z,13.10
2022-09-20T18:41:25.502Z,13.10
2022-09-20T18:43:54.622Z,13.00
2022-09-20T18:46:24.999Z,12.90
2022-09-20T18:48:54.938Z,12.90
2022-09-20T18:51:24.249Z,12.80
2022-09-20T18:53:52.522Z,12.80
2022-09-20T18:56:22.483Z,12.70
2022-09-20T18:58:51.215Z,12.70
2022-09-20T19:01:37.619Z,12.60
2022-09-20T19:04:12.117Z,12.60
2022-09-20T19:06:43.314Z,12.50
2022-09-20T19:09:14.852Z,12.50
2022-09-20T19:11:44.814Z,12.40
2022-09-20T19:14:17.963Z,12.40
2022-09-20T19:16:47.978Z,12.30
2022-09-20T19:19:39.940Z,12.30
2022-09-20T19:22:14.962Z,12.30
2022-09-20T19:25:01.363Z,12.20
2022-09-20T19:27:29.450Z,12.10
2022-09-20T19:29:57.739Z,12.10
2022-09-20T19:32:27.266Z,12.00
2022-09-20T19:35:01.437Z,12.00
2022-09-20T19:37:35.286Z,11.90
2022-09-20T19:40:19.564Z,11.90
2022-09-20T19:42:53.073Z,11.80
2022-09-20T19:45:28.979Z,11.80
2022-09-20T19:48:02.496Z,11.70
2022-09-20T19:50:33.417Z,11.70
2022-09-20T19:53:03.995Z,11.60
2022-09-20T19:55:32.392Z,11.60
2022-09-20T19:58:00.612Z,11.50
2022-09-20T20:00:30.020Z,11.40
2022-09-20T20:02:58.595Z,11.30
2022-09-20T20:05:27.691Z,11.30
2022-09-20T20:07:59.560Z,11.30
2022-09-20T20:10:32.052Z,11.20
2022-09-20T20:13:01.690Z,11.20
2022-09-20T20:15:37.995Z,11.20
2022-09-20T20:18:07.871Z,11.20
2022-09-20T20:20:39.670Z,11.10
2022-09-20T20:23:13.358Z,11.10
2022-09-20T20:25:47.373Z,11.10
2022-09-20T20:28:15.329Z,11.00
2022-09-20T20:30:44.511Z,11.00
2022-09-20T20:33:14.701Z,10.90
2022-09-20T20:35:43.025Z,10.90
2022-09-20T20:38:12.641Z,10.90
2022-09-20T20:40:41.221Z,10.90
2022-09-20T20:43:10.456Z,10.80
2022-09-20T20:45:40.056Z,10.80
2022-09-20T20:48:07.930Z,10.80
2022-09-20T20:50:35.827Z,10.70
2022-09-20T20:53:03.723Z,10.70
2022-09-20T20:55:31.596Z,10.70
2022-09-20T20:57:59.590Z,10.70
2022-09-20T21:00:30.005Z,10.70
2022-09-20T21:02:58.952Z,10.60
2022-09-20T21:05:27.600Z,10.60
2022-09-20T21:07:56.358Z,10.60
2022-09-20T21:10:24.444Z,10.50
2022-09-20T21:12:54.765Z,10.50
2022-09-20T21:15:22.702Z,10.40
2022-09-20T21:17:55.189Z,10.30
2022-09-20T21:20:23.103Z,10.30
2022-09-20T21:22:50.968Z,10.30
2022-09-20T21:25:18.836Z,10.20
2022-09-20T21:27:46.660Z,10.20
2022-09-20T21:30:15.246Z,10.20
2022-09-20T21:32:43.123Z,10.10
2022-09-20T21:35:12.304Z,10.10
2022-09-20T21:37:40.155Z,10.10
2022-09-20T21:40:10.011Z,10.00
2022-09-20T21:42:37.943Z,10.00
2022-09-20T21:45:09.168Z,10.00
2022-09-20T21:47:37.047Z,10.00
2022-09-20T21:50:05.143Z,10.00
2022-09-20T21:52:34.470Z,9.90
2022-09-20T21:55:02.341Z,9.90
2022-09-20T21:57:30.199Z,9.90
2022-09-20T21:59:58.440Z,9.80
2022-09-20T22:02:26.461Z,9.80
2022-09-20T22:04:54.498Z,9.70
2022-09-20T22:07:23.015Z,9.80
2022-09-20T22:09:52.275Z,9.70
2022-09-20T22:12:23.936Z,9.70
2022-09-20T22:14:52.093Z,9.70
2022-09-20T22:17:19.998Z,9.70
2022-09-20T22:19:49.428Z,9.60
2022-09-20T22:22:17.574Z,9.60
2022-09-20T22:24:45.644Z,9.50
2022-09-20T22:27:15.695Z,9.50
2022-09-20T22:29:44.148Z,9.50
2022-09-20T22:32:12.203Z,9.40
2022-09-20T22:34:40.202Z,9.40
2022-09-20T22:37:08.377Z,9.40
2022-09-20T22:39:36.731Z,9.40
2022-09-20T22:42:04.950Z,9.30
2022-09-20T22:44:34.483Z,9.30
2022-09-20T22:47:02.393Z,9.30
2022-09-20T22:49:30.323Z,9.30
2022-09-20T22:51:58.364Z,9.20
2022-09-20T22:54:26.335Z,9.20
2022-09-20T22:56:54.260Z,9.20
2022-09-20T22:59:22.135Z,9.20
2022-09-20T23:01:51.427Z,9.20
2022-09-20T23:04:20.105Z,9.10
2022-09-20T23:06:49.366Z,9.20
2022-09-20T23:09:18.382Z,9.10
2022-09-20T23:11:46.740Z,9.10
2022-09-20T23:14:15.227Z,9.00
2022-09-20T23:16:43.635Z,9.00
2022-09-20T23:19:13.948Z,9.00
2022-09-20T23:21:42.572Z,9.00
2022-09-20T23:24:11.560Z,8.90
2022-09-20T23:26:40.411Z,8.90
2022-09-20T23:29:09.525Z,8.90
2022-09-20T23:31:38.496Z,8.90
2022-09-20T23:34:07.510Z,8.90
2022-09-20T23:36:38.165Z,8.80
2022-09-20T23:39:06.540Z,8.80
2022-09-20T23:41:34.530Z,8.80
2022-09-20T23:44:03.783Z,8.80
2022-09-20T23:46:31.734Z,8.70
2022-09-20T23:49:02.838Z,8.70
2022-09-20T23:51:30.736Z,8.70
2022-09-20T23:53:59.943Z,8.70
2022-09-20T23:56:29.140Z,8.60
2022-09-20T23:58:57.483Z,8.60
